createdAt,value
2022-08-11T00:02:23.976Z,100113.81
2022-08-11T00:04:51.003Z,100114.75
2022-08-11T00:07:19.149Z,100115.81
2022-08-11T00:09:46.279Z,100116.84
2022-08-11T00:12:15.738Z,100110.91
2022-08-11T00:14:43.378Z,100120.16
2022-08-11T00:17:13.049Z,100125.97
2022-08-11T00:20:14.492Z,100122.03
2022-08-11T00:22:32.319Z,100122.59
2022-08-11T00:25:02.641Z,100130.25
2022-08-11T00:27:38.321Z,100138.75
2022-08-11T00:30:07.929Z,100133.66
2022-08-11T00:32:37.265Z,100132.22
2022-08-11T00:35:51.454Z,100133.72
2022-08-11T00:37:56.055Z,100139.59
2022-08-11T00:40:36.666Z,100142.84
2022-08-11T00:43:20.876Z,100139.88
2022-08-11T00:46:10.711Z,100137.31
2022-08-11T00:48:55.940Z,100140.03
2022-08-11T00:51:57.707Z,100136.44
2022-08-11T00:54:57.990Z,100137.53
2022-08-11T00:57:44.300Z,100137.75
2022-08-11T01:00:23.793Z,100138.03
2022-08-11T01:03:18.043Z,100135.44
2022-08-11T01:06:09.291Z,100131.00
2022-08-11T01:09:21.013Z,100131.06
2022-08-11T01:12:24.137Z,100126.63
2022-08-11T01:14:59.410Z,100134.72
2022-08-11T01:17:44.125Z,100133.78
2022-08-11T01:20:46.967Z,100141.78
2022-08-11T01:23:45.426Z,100122.53
2022-08-11T01:26:49.846Z,100137.28
2022-08-11T01:29:49.283Z,100135.69
2022-08-11T01:32:37.989Z,100139.25
2022-08-11T01:35:45.114Z,100133.00
2022-08-11T01:38:56.757Z,100129.47
2022-08-11T01:41:58.291Z,100133.38
2022-08-11T01:45:07.929Z,100125.69
2022-08-11T01:48:05.232Z,100123.25
2022-08-11T01:50:57.474Z,100121.47
2022-08-11T01:53:40.095Z,100126.88
2022-08-11T01:56:28.119Z,100121.41
2022-08-11T01:59:03.763Z,100116.94
2022-08-11T02:01:36.507Z,100121.53
2022-08-11T02:04:33.571Z,100121.69
2022-08-11T02:07:21.888Z,100124.38
2022-08-11T02:10:24.425Z,100119.00
2022-08-11T02:13:19.375Z,100122.63
2022-08-11T02:16:36.856Z,100113.84
2022-08-11T02:19:39.259Z,100115.91
2022-08-11T02:22:58.023Z,100119.16
2022-08-11T02:26:01.948Z,100122.28
2022-08-11T02:28:46.577Z,100127.94
2022-08-11T02:32:15.542Z,100122.91
2022-08-11T02:35:01.862Z,100127.91
2022-08-11T02:37:34.351Z,100120.16
2022-08-11T02:40:31.969Z,100132.97
2022-08-11T02:43:29.013Z,100127.78
2022-08-11T02:46:08.371Z,100129.72
2022-08-11T02:49:23.810Z,100128.91
2022-08-11T02:52:14.328Z,100131.53
2022-08-11T02:55:50.978Z,100132.44
2022-08-11T02:58:26.919Z,100128.13
2022-08-11T03:01:03.338Z,100129.09
2022-08-11T03:04:03.485Z,100130.13
2022-08-11T03:06:45.056Z,100138.28
2022-08-11T03:09:40.222Z,100138.34
2022-08-11T03:12:31.863Z,100135.06
2022-08-11T03:15:25.481Z,100137.94
2022-08-11T03:18:10.656Z,100133.00
2022-08-11T03:20:51.600Z,100137.72
2022-08-11T03:23:41.419Z,100132.66
2022-08-11T03:26:14.642Z,100144.47
2022-08-11T03:28:53.451Z,100139.06
2022-08-11T03:31:51.791Z,100137.06
2022-08-11T03:34:26.998Z,100137.06
2022-08-11T03:37:50.909Z,100133.66
2022-08-11T03:40:51.371Z,100132.34
2022-08-11T03:43:57.957Z,100126.59
2022-08-11T03:46:28.067Z,100127.97
2022-08-11T03:49:12.924Z,100128.72
2022-08-11T03:51:54.090Z,100127.72
2022-08-11T03:54:39.297Z,100126.91
2022-08-11T03:57:36.956Z,100122.28
2022-08-11T04:00:22.265Z,100122.16
2022-08-11T04:03:10.648Z,100119.34
2022-08-11T04:06:17.497Z,100124.56
2022-08-11T04:09:15.809Z,100128.09
2022-08-11T04:12:37.088Z,100124.44
2022-08-11T04:15:47.264Z,100118.94
2022-08-11T04:18:44.773Z,100122.25
2022-08-11T04:21:18.014Z,100126.44
2022-08-11T04:24:37.182Z,100120.88
2022-08-11T04:27:10.439Z,100109.00
2022-08-11T04:30:05.811Z,100115.97
2022-08-11T04:32:57.376Z,100125.53
2022-08-11T04:35:32.019Z,100120.56
2022-08-11T04:38:33.446Z,100118.28
2022-08-11T04:42:12.551Z,100133.16
2022-08-11T04:44:54.081Z,100125.56
2022-08-11T04:48:06.910Z,100124.19
2022-08-11T04:51:36.783Z,100121.16
2022-08-11T04:54:44.360Z,100126.22
2022-08-11T04:58:07.694Z,100119.66
2022-08-11T05:01:22.104Z,100122.88
2022-08-11T05:04:27.319Z,100123.38
2022-08-11T05:06:59.829Z,100123.91
2022-08-11T05:09:41.306Z,100129.78
2022-08-11T05:12:30.204Z,100127.63
2022-08-11T05:15:18.211Z,100131.63
2022-08-11T05:18:29.936Z,100139.03
2022-08-11T05:21:16.201Z,100132.09
2022-08-11T05:24:15.448Z,100137.53
2022-08-11T05:27:13.581Z,100140.25
2022-08-11T05:30:04.573Z,100142.50
2022-08-11T05:33:01.957Z,100137.59
2022-08-11T05:36:00.060Z,100151.28
2022-08-11T05:38:51.427Z,100137.34
2022-08-11T05:41:40.927Z,100143.31
2022-08-11T05:44:26.612Z,100141.44
2022-08-11T05:47:12.385Z,100148.88
2022-08-11T05:50:00.904Z,100132.91
2022-08-11T05:52:49.175Z,100138.88
2022-08-11T05:58:43.071Z,100140.06
2022-08-11T06:01:13.054Z,100139.84
2022-08-11T06:04:03.447Z,100140.97
2022-08-11T06:06:31.288Z,100142.88
2022-08-11T06:08:59.544Z,100142.25
2022-08-11T06:11:44.167Z,100145.50
2022-08-11T06:14:12.164Z,100142.28
2022-08-11T06:16:41.962Z,100142.97
2022-08-11T06:19:09.884Z,100137.44
2022-08-11T06:21:45.214Z,100142.44
2022-08-11T06:24:13.308Z,100145.09
2022-08-11T06:27:11.290Z,100145.81
2022-08-11T06:29:47.957Z,100149.78
2022-08-11T06:32:27.923Z,100143.88
2022-08-11T06:34:59.672Z,100146.16
2022-08-11T06:37:43.615Z,100146.88
2022-08-11T06:40:35.517Z,100147.97
2022-08-11T06:43:10.151Z,100146.56
2022-08-11T06:45:50.410Z,100145.91
2022-08-11T06:48:20.045Z,100140.69
2022-08-11T06:51:13.490Z,100146.59
2022-08-11T06:53:42.878Z,100150.03
2022-08-11T06:57:01.694Z,100146.59
2022-08-11T06:59:56.369Z,100152.97
2022-08-11T07:02:31.035Z,100144.50
2022-08-11T07:05:23.105Z,100144.34
2022-08-11T07:08:33.187Z,100140.88
2022-08-11T07:11:37.553Z,100142.78
2022-08-11T07:14:23.320Z,100141.75
2022-08-11T07:16:51.732Z,100139.16
2022-08-11T07:19:40.927Z,100143.47
2022-08-11T07:22:29.828Z,100142.03
2022-08-11T07:25:34.611Z,100143.09
2022-08-11T07:28:29.542Z,100142.38
2022-08-11T07:31:03.192Z,100142.38
2022-08-11T07:34:07.191Z,100139.59
2022-08-11T07:36:39.286Z,100139.03
2022-08-11T07:39:10.968Z,100131.16
2022-08-11T07:41:39.255Z,100130.09
2022-08-11T07:44:09.410Z,100131.69
2022-08-11T07:47:00.865Z,100127.34
2022-08-11T07:49:48.378Z,100128.84
2022-08-11T07:52:34.319Z,100133.63
2022-08-11T07:55:11.950Z,100126.38
2022-08-11T07:58:16.424Z,100120.13
2022-08-11T08:01:10.442Z,100123.19
2022-08-11T08:04:03.230Z,100132.72
2022-08-11T08:06:51.646Z,100135.38
2022-08-11T08:09:38.635Z,100120.63
2022-08-11T08:12:26.154Z,100114.34
2022-08-11T08:15:13.015Z,100115.75
2022-08-11T08:18:09.443Z,100120.44
2022-08-11T08:20:51.983Z,100117.50
2022-08-11T08:23:41.079Z,100110.25
2022-08-11T08:26:29.756Z,100107.38
2022-08-11T08:29:20.871Z,100114.06
2022-08-11T08:31:49.332Z,100111.47
2022-08-11T08:34:16.862Z,100117.03
2022-08-11T08:36:45.836Z,100108.56
2022-08-11T08:39:14.265Z,100104.34
2022-08-11T08:41:43.178Z,100107.41
2022-08-11T08:47:00.822Z,100109.88
2022-08-11T08:49:33.770Z,100097.72
2022-08-11T08:52:42.682Z,100094.88
2022-08-11T08:54:55.621Z,100094.41
2022-08-11T08:57:23.821Z,100091.16
2022-08-11T08:59:51.732Z,100094.81
2022-08-11T09:02:33.703Z,100100.69
2022-08-11T09:05:03.892Z,100100.09
2022-08-11T09:07:39.759Z,100101.25
2022-08-11T09:10:11.582Z,100104.91
2022-08-11T09:12:41.438Z,100092.66
2022-08-11T09:15:10.551Z,100101.03
2022-08-11T09:17:41.361Z,100103.88
2022-08-11T09:20:22.438Z,100088.69
2022-08-11T09:24:26.418Z,100101.78
2022-08-11T09:29:13.788Z,100084.81
2022-08-11T09:31:53.483Z,100087.44
2022-08-11T09:34:20.840Z,100086.00
2022-08-11T09:37:12.545Z,100090.28
2022-08-11T09:40:00.405Z,100077.63
2022-08-11T09:42:47.584Z,100088.72
2022-08-11T09:45:15.170Z,100079.59
2022-08-11T09:47:43.814Z,100080.34
2022-08-11T09:50:11.293Z,100085.88
2022-08-11T09:52:52.374Z,100072.94
2022-08-11T09:55:24.508Z,100075.03
2022-08-11T09:58:09.722Z,100072.06
2022-08-11T10:00:40.258Z,100069.66
2022-08-11T10:03:11.695Z,100075.50
2022-08-11T10:05:58.791Z,100077.31
2022-08-11T10:08:31.374Z,100071.84
2022-08-11T10:11:09.664Z,100069.06
2022-08-11T10:14:32.882Z,100067.06
2022-08-11T10:16:51.633Z,100076.25
2022-08-11T10:19:22.070Z,100067.53
2022-08-11T10:22:12.552Z,100057.72
2022-08-11T10:25:00.275Z,100057.31
2022-08-11T10:27:38.001Z,100053.41
2022-08-11T10:30:32.786Z,100051.50
2022-08-11T10:33:36.480Z,100051.69
2022-08-11T10:36:06.111Z,100048.25
2022-08-11T10:38:47.234Z,100050.16
2022-08-11T10:41:32.943Z,100052.59
2022-08-11T10:44:03.163Z,100031.66
2022-08-11T10:46:49.968Z,100031.97
2022-08-11T10:49:17.391Z,100042.84
2022-08-11T10:52:03.833Z,100032.13
2022-08-11T10:54:53.897Z,100042.13
2022-08-11T10:58:04.834Z,100031.59
2022-08-11T11:00:41.291Z,100022.06
2022-08-11T11:03:23.719Z,100030.22
2022-08-11T11:06:27.608Z,100013.97
2022-08-11T11:08:55.520Z,100012.72
2022-08-11T11:11:49.092Z,100016.69
2022-08-11T11:14:45.770Z,100010.28
2022-08-11T11:17:33.894Z,100004.63
2022-08-11T11:20:03.679Z,100014.31
2022-08-11T11:22:41.084Z,100012.75
2022-08-11T11:25:19.964Z,100003.41
2022-08-11T11:28:13.936Z,99998.53
2022-08-11T11:30:59.191Z,100006.56
2022-08-11T11:34:06.686Z,100001.38
2022-08-11T11:36:45.798Z,99997.75
2022-08-11T11:39:23.525Z,100002.03
2022-08-11T11:41:53.315Z,100002.03
2022-08-11T11:44:22.733Z,99991.38
2022-08-11T11:46:51.145Z,99987.06
2022-08-11T11:51:53.615Z,99979.56
2022-08-11T11:54:31.802Z,99972.50
2022-08-11T11:57:24.163Z,99969.44
2022-08-11T12:00:10.945Z,99977.50
2022-08-11T12:02:40.750Z,99978.72
2022-08-11T12:05:09.635Z,99971.97
2022-08-11T12:08:12.429Z,99981.75
2022-08-11T12:11:15.530Z,99971.78
2022-08-11T12:13:44.911Z,99962.31
2022-08-11T12:16:33.792Z,99962.44
2022-08-11T12:19:01.927Z,99947.28
2022-08-11T12:21:50.969Z,99961.69
2022-08-11T12:24:53.937Z,99959.50
2022-08-11T12:27:24.015Z,99956.59
2022-08-11T12:29:59.452Z,99957.34
2022-08-11T12:32:48.197Z,99947.63
2022-08-11T12:35:16.431Z,99938.34
2022-08-11T12:37:51.803Z,99946.09
2022-08-11T12:41:13.691Z,99954.69
2022-08-11T12:43:57.247Z,99942.09
2022-08-11T12:46:32.247Z,99937.28
2022-08-11T12:49:20.486Z,99935.91
2022-08-11T12:52:01.460Z,99930.13
2022-08-11T12:54:57.288Z,99925.53
2022-08-11T12:57:48.371Z,99925.16
2022-08-11T13:00:35.650Z,99928.63
2022-08-11T13:03:24.404Z,99919.06
2022-08-11T13:05:54.782Z,99919.75
2022-08-11T13:08:24.954Z,99916.03
2022-08-11T13:11:15.497Z,99923.34
2022-08-11T13:13:53.917Z,99912.06
2022-08-11T13:16:25.141Z,99910.47
2022-08-11T13:18:53.481Z,99921.56
2022-08-11T13:21:22.823Z,99905.44
2022-08-11T13:24:00.511Z,99906.22
2022-08-11T13:26:47.868Z,99907.41
2022-08-11T13:29:21.482Z,99901.78
2022-08-11T13:31:49.141Z,99894.75
2022-08-11T13:34:18.081Z,99886.19
2022-08-11T13:36:47.259Z,99883.91
2022-08-11T13:39:14.981Z,99884.47
2022-08-11T13:41:45.152Z,99879.78
2022-08-11T13:44:15.511Z,99878.16
2022-08-11T13:46:44.535Z,99874.47
2022-08-11T13:49:11.812Z,99878.19
2022-08-11T13:51:40.677Z,99873.22
2022-08-11T13:54:15.813Z,99871.50
2022-08-11T13:56:50.097Z,99867.97
2022-08-11T13:59:29.989Z,99871.44
2022-08-11T14:02:21.416Z,99872.56
2022-08-11T14:05:09.781Z,99869.56
2022-08-11T14:07:42.367Z,99865.19
2022-08-11T14:10:12.108Z,99861.16
2022-08-11T14:13:13.857Z,99862.91
2022-08-11T14:16:02.573Z,99858.97
2022-08-11T14:22:17.909Z,99861.34
2022-08-11T14:24:50.800Z,99855.50
2022-08-11T14:28:15.410Z,99856.19
2022-08-11T14:30:58.992Z,99858.94
2022-08-11T14:52:11.789Z,99831.84
2022-08-11T14:55:47.485Z,99828.94
2022-08-11T14:58:23.411Z,99832.13
2022-08-11T15:01:56.617Z,99831.69
2022-08-11T15:15:04.647Z,99826.19
2022-08-11T15:18:02.580Z,99815.81
2022-08-11T15:20:54.370Z,99820.38
2022-08-11T15:23:39.746Z,99815.38
2022-08-11T15:26:14.083Z,99814.84
2022-08-11T15:29:23.959Z,99800.44
2022-08-11T15:32:09.107Z,99806.84
2022-08-11T15:34:54.929Z,99805.63
2022-08-11T15:37:27.271Z,99808.44
2022-08-11T15:40:30.141Z,99802.72
2022-08-11T15:43:28.997Z,99802.97
2022-08-11T15:46:29.177Z,99791.88
2022-08-11T15:49:03.458Z,99805.53
2022-08-11T15:51:37.456Z,99800.50
2022-08-11T15:56:53.047Z,99789.59
2022-08-11T15:59:42.253Z,99795.19
2022-08-11T16:02:17.738Z,99796.47
2022-08-11T16:04:49.187Z,99794.81
2022-08-11T16:07:19.232Z,99793.63
2022-08-11T16:10:00.016Z,99793.81
2022-08-11T16:12:34.217Z,99786.38
2022-08-11T16:15:30.407Z,99792.81
2022-08-11T16:18:05.065Z,99782.16
2022-08-11T16:20:35.031Z,99785.44
2022-08-11T16:23:05.169Z,99784.09
2022-08-11T16:27:03.158Z,99788.34
2022-08-11T16:28:25.197Z,99782.03
2022-08-11T16:30:53.493Z,99778.97
2022-08-11T16:33:49.963Z,99776.72
2022-08-11T16:36:33.575Z,99772.41
2022-08-11T16:39:02.076Z,99773.25
2022-08-11T16:41:52.481Z,99775.59
2022-08-11T16:44:41.534Z,99772.88
2022-08-11T16:47:13.055Z,99781.00
2022-08-11T16:49:52.370Z,99775.31
2022-08-11T16:52:21.104Z,99785.34
2022-08-11T16:54:48.630Z,99769.63
2022-08-11T16:57:44.588Z,99777.91
2022-08-11T17:00:15.413Z,99779.31
2022-08-11T17:03:08.329Z,99773.44
2022-08-11T17:05:55.433Z,99770.66
2022-08-11T17:09:09.771Z,99780.34
2022-08-11T17:12:00.700Z,99773.06
2022-08-11T17:14:43.677Z,99772.69
2022-08-11T17:17:15.056Z,99772.72
2022-08-11T17:20:42.524Z,99777.34
2022-08-11T17:22:56.816Z,99776.63
2022-08-11T17:25:28.441Z,99775.78
2022-08-11T17:27:56.744Z,99781.09
2022-08-11T17:30:45.080Z,99775.38
2022-08-11T17:33:36.415Z,99785.47
2022-08-11T17:36:05.399Z,99778.03
2022-08-11T17:38:45.439Z,99775.25
2022-08-11T17:41:33.939Z,99774.84
2022-08-11T17:44:19.979Z,99777.19
2022-08-11T17:47:06.285Z,99776.16
2022-08-11T17:49:45.326Z,99777.44
2022-08-11T17:52:35.430Z,99780.09
2022-08-11T17:55:50.929Z,99780.50
2022-08-11T17:58:27.629Z,99785.44
2022-08-11T18:00:55.999Z,99790.13
2022-08-11T18:03:34.165Z,99786.78
2022-08-11T18:06:03.313Z,99786.47
2022-08-11T18:08:52.081Z,99791.31
2022-08-11T18:12:10.643Z,99788.41
2022-08-11T18:14:47.081Z,99794.75
2022-08-11T18:17:32.621Z,99799.31
2022-08-11T18:20:17.684Z,99797.78
2022-08-11T18:23:06.462Z,99803.59
2022-08-11T18:25:57.430Z,99809.06
2022-08-11T18:28:46.418Z,99807.78
2022-08-11T18:31:34.283Z,99809.09
2022-08-11T18:34:25.583Z,99814.03
2022-08-11T18:37:24.722Z,99819.09
2022-08-11T18:40:18.920Z,99820.13
2022-08-11T18:43:06.787Z,99816.81
2022-08-11T18:46:06.577Z,99825.16
2022-08-11T18:48:57.647Z,99822.53
2022-08-11T18:51:44.057Z,99824.41
2022-08-11T18:54:31.371Z,99821.78
2022-08-11T18:57:20.693Z,99817.16
2022-08-11T19:00:07.043Z,99820.88
2022-08-11T19:02:56.926Z,99819.13
2022-08-11T19:06:31.815Z,99810.13
2022-08-11T19:08:58.335Z,99815.38
2022-08-11T19:11:45.282Z,99817.47
2022-08-11T19:14:41.797Z,99825.78
2022-08-11T19:17:43.646Z,99823.53
2022-08-11T19:20:36.359Z,99821.84
2022-08-11T19:23:23.995Z,99825.53
2022-08-11T19:26:11.724Z,99822.84
2022-08-11T19:29:00.732Z,99828.22
2022-08-11T19:31:46.998Z,99829.13
2022-08-11T19:34:34.812Z,99844.72
2022-08-11T19:37:24.309Z,99836.19
2022-08-11T19:40:16.506Z,99847.16
2022-08-11T19:43:03.796Z,99841.25
2022-08-11T19:46:01.595Z,99837.00
2022-08-11T19:48:52.135Z,99826.09
2022-08-11T19:51:38.547Z,99831.44
2022-08-11T19:54:24.935Z,99833.41
2022-08-11T19:57:15.115Z,99837.88
2022-08-11T20:00:01.142Z,99841.34
2022-08-11T20:02:47.088Z,99848.41
2022-08-11T20:05:33.001Z,99848.13
2022-08-11T20:08:18.737Z,99853.19
2022-08-11T20:11:06.755Z,99851.94
2022-08-11T20:13:53.700Z,99852.41
2022-08-11T20:16:42.119Z,99852.13
2022-08-11T20:19:56.143Z,99851.97
2022-08-11T20:22:34.272Z,99850.06
2022-08-11T20:25:20.935Z,99842.81
2022-08-11T20:28:07.224Z,99842.78
2022-08-11T20:30:52.576Z,99847.31
2022-08-11T20:33:39.335Z,99844.16
2022-08-11T20:36:25.486Z,99848.22
2022-08-11T20:39:11.765Z,99851.72
2022-08-11T20:41:57.786Z,99852.28
2022-08-11T20:44:46.133Z,99855.91
2022-08-11T20:47:33.883Z,99856.03
2022-08-11T20:50:40.897Z,99857.47
2022-08-11T20:53:29.295Z,99847.25
2022-08-11T20:56:17.070Z,99854.88
2022-08-11T20:59:21.782Z,99860.44
2022-08-11T21:02:09.925Z,99857.06
2022-08-11T21:05:01.457Z,99863.63
2022-08-11T21:07:57.002Z,99866.47
2022-08-11T21:10:51.404Z,99857.53
2022-08-11T21:13:42.078Z,99870.03
2022-08-11T21:16:32.426Z,99863.41
2022-08-11T21:20:00.489Z,99862.19
2022-08-11T21:22:59.142Z,99868.91
2022-08-11T21:25:59.330Z,99863.91
2022-08-11T21:28:47.958Z,99865.50
2022-08-11T21:31:35.169Z,99869.91
2022-08-11T21:34:21.979Z,99867.81
2022-08-11T21:37:09.343Z,99876.59
2022-08-11T21:39:55.275Z,99877.09
2022-08-11T21:42:41.476Z,99878.56
2022-08-11T21:45:28.220Z,99879.03
2022-08-11T21:48:15.679Z,99883.78
2022-08-11T21:51:01.359Z,99881.59
2022-08-11T21:53:47.004Z,99881.31
2022-08-11T21:56:33.353Z,99881.69
2022-08-11T21:59:18.984Z,99882.78
2022-08-11T22:02:06.193Z,99880.75
2022-08-11T22:04:54.837Z,99888.19
2022-08-11T22:07:41.012Z,99889.84
2022-08-11T22:10:40.379Z,99883.06
2022-08-11T22:13:31.567Z,99888.09
2022-08-11T22:16:20.287Z,99880.75
2022-08-11T22:19:07.528Z,99881.22
2022-08-11T22:22:03.593Z,99879.75
2022-08-11T22:24:52.763Z,99883.91
2022-08-11T22:27:39.420Z,99884.88
2022-08-11T22:30:25.822Z,99880.63
2022-08-11T22:33:11.687Z,99880.72
2022-08-11T22:36:00.601Z,99885.00
2022-08-11T22:38:47.356Z,99883.28
2022-08-11T22:41:32.837Z,99885.19
2022-08-11T22:44:17.600Z,99880.28
2022-08-11T22:47:04.284Z,99873.25
2022-08-11T22:49:57.560Z,99876.59
2022-08-11T22:52:45.690Z,99883.41
2022-08-11T22:55:31.511Z,99884.88
2022-08-11T22:58:17.300Z,99879.75
2022-08-11T23:01:03.269Z,99885.94
2022-08-11T23:03:50.900Z,99885.59
2022-08-11T23:06:37.439Z,99882.78
2022-08-11T23:09:26.070Z,99888.13
2022-08-11T23:12:12.291Z,99881.66
2022-08-11T23:14:59.348Z,99895.81
2022-08-11T23:17:46.437Z,99884.78
2022-08-11T23:20:35.711Z,99887.31
2022-08-11T23:23:22.664Z,99888.13
2022-08-11T23:26:11.032Z,99884.53
2022-08-11T23:28:59.319Z,99884.53
2022-08-11T23:31:51.961Z,99885.56
2022-08-11T23:35:02.548Z,99886.97
2022-08-11T23:37:46.325Z,99898.25
2022-08-11T23:40:31.316Z,99886.88
2022-08-11T23:43:16.936Z,99874.59
2022-08-11T23:46:02.088Z,99876.91
2022-08-11T23:48:49.862Z,99877.16
2022-08-11T23:51:40.728Z,99872.00
2022-08-11T23:54:31.603Z,99874.09
2022-08-11T23:57:20.693Z,99873.91
